createdAt,value
2019-01-30T00:01:56.729Z,18.40
2019-01-30T00:04:37.288Z,16.17
2019-01-30T00:07:20.824Z,13.80
2019-01-30T00:10:01.322Z,13.80
2019-01-30T00:12:45.347Z,14.50
2019-01-30T00:15:25.807Z,15.93
2019-01-30T00:18:06.315Z,15.83
2019-01-30T00:20:47.714Z,14.53
2019-01-30T00:23:29.014Z,13.97
2019-01-30T00:26:10.166Z,13.67
2019-01-30T00:28:49.403Z,26.37
2019-01-30T00:31:37.736Z,12.63
2019-01-30T00:34:21.658Z,16.60
2019-01-30T00:37:02.579Z,15.37
2019-01-30T00:39:46.335Z,12.73
2019-01-30T00:45:08.871Z,17.07
2019-01-30T00:50:31.583Z,15.13
2019-01-30T00:53:12.203Z,15.90
2019-01-30T00:55:53.060Z,16.07
2019-01-30T00:58:34.209Z,15.57
2019-01-30T01:01:14.818Z,15.40
2019-01-30T01:03:43.755Z,20.07
2019-01-30T01:09:26.929Z,22.83
2019-01-30T01:11:55.836Z,13.67
2019-01-30T01:20:34.587Z,19.20
2019-01-30T01:25:58.271Z,23.33
2019-01-30T01:28:42.111Z,18.53
2019-01-30T01:31:23.496Z,17.53
2019-01-30T01:33:52.572Z,22.30
2019-01-30T01:36:40.652Z,21.73
2019-01-30T01:39:21.784Z,17.40
2019-01-30T01:42:02.744Z,17.43
2019-01-30T01:47:32.944Z,14.93
2019-01-30T01:53:02.386Z,21.90
2019-01-30T01:55:43.105Z,16.50
2019-01-30T01:58:26.973Z,21.70
2019-01-30T02:01:07.480Z,17.00
2019-01-30T02:03:48.145Z,14.47
2019-01-30T02:06:29.450Z,16.93
2019-01-30T02:09:10.716Z,10.97
2019-01-30T02:11:51.517Z,15.20
2019-01-30T02:14:32.277Z,14.27
2019-01-30T02:19:57.965Z,16.50
2019-01-30T02:22:38.577Z,17.43
2019-01-30T02:25:19.617Z,19.30
2019-01-30T02:27:48.503Z,11.87
2019-01-30T02:30:47.244Z,14.63
2019-01-30T02:36:01.810Z,13.03
2019-01-30T02:38:42.481Z,22.80
2019-01-30T02:41:11.603Z,15.00
2019-01-30T02:43:59.885Z,14.20
2019-01-30T02:46:40.578Z,26.57
2019-01-30T02:52:06.871Z,10.97
2019-01-30T02:54:47.465Z,13.87
2019-01-30T02:57:28.021Z,10.73
2019-01-30T03:00:08.852Z,12.90
2019-01-30T03:02:38.240Z,11.07
2019-01-30T03:05:26.902Z,13.67
2019-01-30T03:08:08.272Z,13.40
2019-01-30T03:10:50.047Z,10.47
2019-01-30T03:13:31.144Z,8.30
2019-01-30T03:16:12.022Z,7.57
2019-01-30T03:18:53.307Z,11.33
2019-01-30T03:21:34.118Z,8.97
2019-01-30T03:24:18.312Z,11.50
2019-01-30T03:26:47.317Z,7.83
2019-01-30T03:29:35.504Z,10.20
2019-01-30T03:32:23.768Z,8.97
2019-01-30T03:35:05.002Z,9.57
2019-01-30T03:37:46.094Z,8.13
2019-01-30T03:40:27.637Z,8.60
2019-01-30T03:43:08.261Z,5.70
2019-01-30T03:45:49.257Z,6.80
2019-01-30T03:48:30.650Z,10.30
2019-01-30T03:51:11.741Z,9.20
2019-01-30T03:53:52.557Z,9.47
2019-01-30T03:56:34.297Z,8.90
2019-01-30T03:59:15.034Z,8.80
2019-01-30T04:01:56.675Z,10.50
2019-01-30T04:04:38.056Z,8.00
2019-01-30T04:07:19.396Z,9.83
2019-01-30T04:09:59.990Z,8.50
2019-01-30T04:12:41.488Z,7.50
2019-01-30T04:15:22.588Z,6.73
2019-01-30T04:18:03.575Z,10.50
2019-01-30T04:20:42.742Z,14.70
2019-01-30T04:23:30.784Z,11.30
2019-01-30T04:26:11.892Z,8.90
2019-01-30T04:28:53.200Z,10.10
2019-01-30T04:31:38.372Z,11.50
2019-01-30T04:34:16.550Z,9.70
2019-01-30T04:36:57.771Z,10.60
2019-01-30T04:39:26.779Z,10.80
2019-01-30T04:42:15.092Z,11.57
2019-01-30T04:44:44.128Z,10.97
2019-01-30T04:47:32.348Z,14.97
2019-01-30T04:50:13.314Z,13.50
2019-01-30T04:52:54.378Z,14.90
2019-01-30T04:55:35.934Z,12.27
2019-01-30T04:58:17.426Z,12.80
2019-01-30T05:00:57.972Z,15.37
2019-01-30T05:03:39.077Z,14.65
2019-01-30T05:06:20.486Z,12.70
2019-01-30T05:09:02.392Z,15.30
2019-01-30T05:11:43.253Z,9.13
2019-01-30T05:14:23.937Z,16.77
2019-01-30T05:17:04.604Z,15.33
2019-01-30T05:19:33.516Z,13.40
2019-01-30T05:22:14.708Z,12.15
2019-01-30T05:24:56.416Z,17.27
2019-01-30T05:27:37.353Z,15.30
2019-01-30T05:30:18.280Z,13.80
2019-01-30T05:33:00.037Z,13.80
2019-01-30T05:35:29.179Z,18.37
2019-01-30T05:38:18.777Z,16.57
2019-01-30T05:41:07.173Z,18.47
2019-01-30T05:43:48.351Z,12.70
2019-01-30T05:46:29.586Z,16.00
2019-01-30T05:49:11.070Z,15.60
2019-01-30T05:51:51.549Z,16.47
2019-01-30T05:54:35.462Z,18.30
2019-01-30T05:57:16.872Z,14.05
2019-01-30T05:59:57.636Z,12.50
2019-01-30T06:02:26.745Z,14.13
2019-01-30T06:05:14.957Z,11.67
2019-01-30T06:08:03.092Z,11.10
2019-01-30T06:10:44.256Z,11.93
2019-01-30T06:13:13.181Z,12.33
2019-01-30T06:16:01.401Z,12.15
2019-01-30T06:18:49.554Z,11.20
2019-01-30T06:21:18.545Z,10.70
2019-01-30T06:23:47.459Z,16.17
2019-01-30T06:26:37.132Z,10.70
2019-01-30T06:29:25.514Z,15.43
2019-01-30T06:32:06.415Z,11.30
2019-01-30T06:34:47.056Z,14.15
2019-01-30T06:37:26.282Z,13.70
2019-01-30T06:40:18.753Z,15.60
2019-01-30T06:43:02.388Z,13.53
2019-01-30T06:45:42.444Z,12.57
2019-01-30T06:48:23.404Z,15.20
2019-01-30T06:51:04.845Z,15.53
2019-01-30T06:53:46.372Z,12.35
2019-01-30T06:56:27.244Z,15.47
2019-01-30T06:59:08.446Z,14.17
2019-01-30T07:01:37.425Z,14.95
2019-01-30T07:04:25.655Z,14.70
2019-01-30T07:07:13.963Z,16.03
2019-01-30T07:09:54.834Z,21.43
2019-01-30T07:12:35.602Z,18.77
2019-01-30T07:15:17.326Z,17.98
2019-01-30T07:17:58.470Z,16.13
2019-01-30T07:20:27.651Z,16.57
2019-01-30T07:22:56.603Z,18.97
2019-01-30T07:28:40.156Z,17.50
2019-01-30T07:31:28.438Z,15.80
2019-01-30T07:34:10.786Z,20.03
2019-01-30T07:36:52.047Z,14.13
2019-01-30T07:39:35.637Z,16.83
2019-01-30T07:42:16.185Z,14.20
2019-01-30T07:44:57.733Z,12.63
2019-01-30T07:47:26.724Z,13.67
2019-01-30T07:50:14.970Z,14.67
2019-01-30T07:53:03.293Z,16.77
2019-01-30T07:55:44.696Z,17.13
2019-01-30T07:58:25.829Z,17.80
2019-01-30T08:01:06.340Z,17.53
2019-01-30T08:03:47.197Z,16.80
2019-01-30T08:06:28.012Z,16.87
2019-01-30T08:09:09.186Z,17.93
2019-01-30T08:11:50.503Z,19.00
2019-01-30T08:14:30.900Z,17.03
2019-01-30T08:17:18.148Z,16.37
2019-01-30T08:20:01.013Z,17.43
2019-01-30T08:22:41.879Z,19.40
2019-01-30T08:25:22.502Z,16.12
2019-01-30T08:28:03.513Z,16.80
2019-01-30T08:30:45.197Z,16.73
2019-01-30T08:33:26.743Z,15.00
2019-01-30T08:36:06.082Z,17.27
2019-01-30T08:38:49.029Z,18.27
2019-01-30T08:41:30.104Z,19.70
2019-01-30T08:44:10.853Z,19.57
2019-01-30T08:46:53.447Z,16.47
2019-01-30T08:49:34.806Z,16.13
2019-01-30T08:52:03.933Z,11.23
2019-01-30T08:54:52.209Z,16.70
2019-01-30T08:57:40.461Z,11.53
2019-01-30T09:00:23.597Z,16.90
2019-01-30T09:06:17.313Z,16.43
2019-01-30T09:08:58.092Z,16.43
2019-01-30T09:11:27.248Z,16.70
2019-01-30T09:14:15.577Z,17.07
2019-01-30T09:16:58.866Z,10.53
2019-01-30T09:19:39.183Z,14.70
2019-01-30T09:22:18.445Z,14.50
2019-01-30T09:25:08.164Z,16.80
2019-01-30T09:27:49.337Z,13.30
2019-01-30T09:30:30.043Z,15.50
2019-01-30T09:33:10.467Z,12.83
2019-01-30T09:35:58.681Z,13.20
2019-01-30T09:38:39.267Z,17.10
2019-01-30T09:41:19.889Z,19.90
2019-01-30T09:44:00.484Z,20.87
2019-01-30T09:46:41.082Z,17.43
2019-01-30T09:49:21.607Z,18.60
2019-01-30T09:51:50.724Z,17.23
2019-01-30T09:54:38.906Z,15.37
2019-01-30T09:57:20.027Z,16.60
2019-01-30T10:02:45.823Z,19.57
2019-01-30T10:05:27.229Z,17.30
2019-01-30T10:08:08.240Z,14.47
2019-01-30T10:13:37.608Z,18.20
2019-01-30T10:16:18.459Z,12.53
2019-01-30T10:18:59.569Z,14.07
2019-01-30T10:21:41.030Z,15.37
2019-01-30T10:24:22.364Z,14.87
2019-01-30T10:26:51.272Z,14.43
2019-01-30T10:29:39.442Z,17.10
2019-01-30T10:32:27.700Z,16.73
2019-01-30T10:35:08.213Z,19.17
2019-01-30T10:37:48.837Z,14.10
2019-01-30T10:40:30.043Z,16.40
2019-01-30T10:43:11.285Z,12.07
2019-01-30T10:45:51.887Z,15.97
2019-01-30T10:48:32.717Z,15.73
2019-01-30T10:51:16.714Z,11.87
2019-01-30T10:56:45.387Z,12.70
2019-01-30T10:59:14.760Z,9.70
2019-01-30T11:02:02.978Z,12.17
2019-01-30T11:07:59.319Z,11.67
2019-01-30T11:10:39.931Z,11.93
2019-01-30T11:13:21.734Z,14.50
2019-01-30T11:15:50.667Z,13.47
2019-01-30T11:18:38.928Z,18.07
2019-01-30T11:21:19.674Z,17.47
2019-01-30T11:24:00.551Z,13.73
2019-01-30T11:29:23.846Z,13.50
2019-01-30T11:32:04.518Z,11.43
2019-01-30T11:34:45.225Z,13.97
2019-01-30T11:37:26.493Z,18.67
2019-01-30T11:42:58.383Z,17.13
2019-01-30T11:45:39.611Z,14.97
2019-01-30T11:48:20.410Z,13.40
2019-01-30T11:51:01.060Z,12.77
2019-01-30T11:53:30.216Z,12.47
2019-01-30T11:56:18.451Z,12.93
2019-01-30T11:59:06.705Z,12.70
2019-01-30T12:01:50.766Z,15.23
2019-01-30T12:07:08.421Z,14.23
2019-01-30T12:09:56.727Z,12.50
2019-01-30T12:12:40.933Z,15.40
2019-01-30T12:15:22.416Z,14.33
2019-01-30T12:18:06.773Z,14.80
2019-01-30T12:23:40.091Z,10.00
2019-01-30T12:32:06.492Z,9.53
2019-01-30T12:34:47.960Z,6.67
2019-01-30T12:37:28.702Z,7.30
2019-01-30T12:40:10.182Z,8.20
2019-01-30T12:42:51.153Z,6.17
2019-01-30T12:48:19.949Z,5.87
2019-01-30T12:53:49.728Z,4.53
2019-01-30T12:59:18.858Z,6.70
2019-01-30T13:04:51.083Z,4.50
2019-01-30T13:10:23.753Z,6.20
2019-01-30T13:15:52.557Z,8.00
2019-01-30T13:18:33.887Z,7.80
2019-01-30T13:21:15.150Z,8.37
2019-01-30T13:26:41.053Z,6.10
2019-01-30T13:32:13.733Z,6.10
2019-01-30T13:34:54.381Z,7.60
2019-01-30T13:37:38.061Z,17.80
2019-01-30T13:40:19.401Z,9.93
2019-01-30T13:42:48.373Z,5.90
2019-01-30T13:45:36.663Z,8.00
2019-01-30T13:48:17.559Z,5.50
2019-01-30T13:50:58.747Z,4.30
2019-01-30T13:53:39.947Z,4.33
2019-01-30T13:59:02.635Z,5.13
2019-01-30T14:01:43.935Z,10.80
2019-01-30T14:04:24.565Z,4.90
2019-01-30T14:07:05.013Z,5.97
2019-01-30T14:09:46.010Z,5.20
2019-01-30T14:12:15.240Z,6.50
2019-01-30T14:15:03.488Z,5.80
2019-01-30T14:17:32.515Z,5.20
2019-01-30T14:20:20.882Z,5.67
2019-01-30T14:23:02.027Z,7.17
2019-01-30T14:25:46.652Z,9.93
2019-01-30T14:28:28.395Z,9.77
2019-01-30T14:31:09.754Z,10.07
2019-01-30T14:36:35.123Z,11.13
2019-01-30T14:42:00.737Z,10.73
2019-01-30T14:47:30.223Z,12.20
2019-01-30T14:50:17.555Z,13.30
2019-01-30T14:52:58.655Z,12.30
2019-01-30T14:55:39.587Z,12.00
2019-01-30T14:58:20.538Z,12.23
2019-01-30T15:01:01.386Z,11.33
2019-01-30T15:03:42.715Z,10.20
2019-01-30T15:09:09.663Z,10.07
2019-01-30T15:11:50.346Z,13.30
2019-01-30T15:14:31.173Z,11.77
2019-01-30T15:17:12.479Z,8.93
2019-01-30T15:19:53.161Z,12.63
2019-01-30T15:22:34.291Z,11.00
2019-01-30T15:25:18.040Z,11.40
2019-01-30T15:27:59.165Z,18.70
2019-01-30T15:30:40.608Z,34.80
2019-01-30T15:33:22.119Z,23.10
2019-01-30T15:36:02.772Z,21.10
2019-01-30T15:38:43.425Z,36.90
2019-01-30T15:41:24.131Z,41.77
2019-01-30T15:44:03.359Z,31.07
2019-01-30T15:46:47.492Z,42.23
2019-01-30T15:49:29.062Z,47.50
2019-01-30T15:52:10.243Z,38.03
2019-01-30T15:54:53.790Z,15.00
2019-01-30T15:57:35.135Z,22.10
2019-01-30T16:00:15.684Z,22.97
2019-01-30T16:02:57.069Z,10.47
2019-01-30T16:05:44.411Z,11.90
2019-01-30T16:08:20.258Z,12.67
2019-01-30T16:10:59.496Z,9.50
2019-01-30T16:13:47.732Z,10.00
2019-01-30T16:16:28.518Z,9.13
2019-01-30T16:19:09.343Z,9.20
2019-01-30T16:21:52.856Z,8.90
2019-01-30T16:24:34.398Z,13.30
2019-01-30T16:27:14.953Z,29.43
2019-01-30T16:29:55.849Z,26.83
2019-01-30T16:32:39.551Z,19.70
2019-01-30T16:35:21.063Z,15.70
2019-01-30T16:38:04.765Z,16.23
2019-01-30T16:43:27.647Z,42.80
2019-01-30T16:46:09.077Z,72.80
2019-01-30T16:48:50.583Z,30.50
2019-01-30T16:51:31.177Z,24.67
2019-01-30T16:54:15.628Z,17.13
2019-01-30T16:56:56.180Z,17.13
2019-01-30T16:59:40.702Z,37.60
2019-01-30T17:02:21.984Z,17.13
2019-01-30T17:05:01.317Z,14.93
2019-01-30T17:07:49.503Z,18.13
2019-01-30T17:10:30.859Z,19.20
2019-01-30T17:12:59.939Z,16.30
2019-01-30T17:15:48.153Z,15.70
2019-01-30T17:18:17.838Z,15.67
2019-01-30T17:26:56.894Z,13.43
2019-01-30T17:32:22.603Z,13.77
2019-01-30T17:37:55.284Z,12.97
2019-01-30T17:43:34.170Z,13.70
2019-01-30T17:48:58.744Z,11.50
2019-01-30T17:51:38.047Z,12.37
2019-01-30T17:54:19.135Z,9.13
2019-01-30T17:56:48.170Z,10.73
2019-01-30T17:59:36.467Z,8.70
2019-01-30T18:02:24.726Z,10.80
2019-01-30T18:05:05.330Z,8.83
2019-01-30T18:07:47.813Z,10.53
2019-01-30T18:10:29.307Z,10.17
2019-01-30T18:13:12.815Z,13.07
2019-01-30T18:15:53.401Z,13.00
2019-01-30T18:18:37.241Z,14.27
2019-01-30T18:21:18.734Z,11.50
2019-01-30T18:23:48.083Z,12.00
2019-01-30T18:26:38.042Z,14.17
2019-01-30T18:29:26.424Z,10.80
2019-01-30T18:32:07.511Z,15.00
2019-01-30T18:34:36.675Z,14.17
2019-01-30T18:37:25.822Z,9.80
2019-01-30T18:40:07.250Z,12.43
2019-01-30T18:42:49.882Z,9.60
2019-01-30T18:45:31.395Z,14.37
2019-01-30T18:48:13.455Z,11.00
2019-01-30T18:50:45.615Z,8.47
2019-01-30T18:53:32.724Z,16.63
2019-01-30T18:56:20.992Z,10.20
2019-01-30T18:59:09.367Z,16.80
2019-01-30T19:01:50.185Z,10.73
2019-01-30T19:04:31.390Z,17.33
2019-01-30T19:07:12.640Z,12.90
2019-01-30T19:09:51.875Z,10.77
2019-01-30T19:12:32.965Z,16.03
2019-01-30T19:15:13.754Z,7.20
2019-01-30T19:17:55.226Z,7.07
2019-01-30T19:20:36.547Z,7.77
2019-01-30T19:23:17.811Z,10.20
2019-01-30T19:28:47.501Z,8.37
2019-01-30T19:31:28.714Z,9.87
2019-01-30T19:34:10.131Z,4.23
2019-01-30T19:36:50.653Z,3.80
2019-01-30T19:39:35.098Z,3.83
2019-01-30T19:42:15.703Z,5.17
2019-01-30T19:44:56.326Z,6.47
2019-01-30T19:47:36.981Z,7.80
2019-01-30T19:50:18.151Z,4.87
2019-01-30T19:52:57.856Z,10.60
2019-01-30T19:55:27.046Z,8.90
2019-01-30T19:58:15.689Z,5.90
2019-01-30T20:00:57.215Z,5.70
2019-01-30T20:03:38.218Z,6.73
2019-01-30T20:06:18.950Z,6.00
2019-01-30T20:09:00.416Z,10.23
2019-01-30T20:11:41.125Z,9.90
2019-01-30T20:14:22.456Z,6.93
2019-01-30T20:19:49.347Z,5.67
2019-01-30T20:22:30.910Z,7.97
2019-01-30T20:25:11.534Z,9.00
2019-01-30T20:27:52.279Z,6.00
2019-01-30T20:30:32.968Z,5.97
2019-01-30T20:33:14.059Z,7.27
2019-01-30T20:35:54.730Z,7.53
2019-01-30T20:38:36.230Z,9.43
2019-01-30T20:41:16.003Z,5.83
2019-01-30T20:43:57.066Z,4.63
2019-01-30T20:46:38.521Z,7.80
2019-01-30T20:52:27.414Z,5.83
2019-01-30T20:54:59.887Z,9.50
2019-01-30T20:57:39.604Z,9.13
2019-01-30T21:00:20.756Z,8.10
2019-01-30T21:03:02.006Z,8.53
2019-01-30T21:08:29.534Z,5.10
2019-01-30T21:11:10.497Z,5.60
2019-01-30T21:13:51.555Z,13.40
2019-01-30T21:16:32.342Z,5.20
2019-01-30T21:19:13.746Z,9.23
2019-01-30T21:21:58.253Z,5.50
2019-01-30T21:24:41.757Z,9.13
2019-01-30T21:27:23.130Z,12.93
2019-01-30T21:30:04.536Z,10.83
2019-01-30T21:32:45.693Z,18.40
2019-01-30T21:35:27.184Z,20.40
2019-01-30T21:40:59.551Z,13.97
2019-01-30T21:46:25.973Z,7.77
2019-01-30T21:51:55.404Z,9.83
2019-01-30T21:57:22.007Z,7.35
2019-01-30T22:00:03.114Z,5.60
2019-01-30T22:02:43.903Z,11.50
2019-01-30T22:05:28.355Z,7.47
2019-01-30T22:08:12.506Z,6.60
2019-01-30T22:13:49.677Z,7.17
2019-01-30T22:16:30.437Z,8.80
2019-01-30T22:19:13.997Z,5.80
2019-01-30T22:21:54.538Z,5.20
2019-01-30T22:24:35.782Z,5.17
2019-01-30T22:27:04.954Z,9.03
2019-01-30T22:29:53.043Z,7.45
2019-01-30T22:32:41.275Z,13.25
2019-01-30T22:35:24.012Z,7.17
2019-01-30T22:38:12.162Z,9.68
2019-01-30T22:40:50.034Z,8.50
2019-01-30T22:46:18.937Z,8.53
2019-01-30T22:51:52.741Z,10.45
2019-01-30T22:54:33.847Z,6.05
2019-01-30T22:57:17.405Z,6.53
2019-01-30T22:59:58.202Z,9.80
2019-01-30T23:02:39.420Z,9.40
2019-01-30T23:08:06.026Z,10.95
2019-01-30T23:10:47.363Z,14.47
2019-01-30T23:13:38.690Z,9.85
2019-01-30T23:16:46.130Z,10.00
2019-01-30T23:19:27.016Z,6.65
2019-01-30T23:24:52.508Z,26.12
2019-01-30T23:30:20.294Z,15.00
2019-01-30T23:33:01.551Z,16.42
2019-01-30T23:35:42.368Z,9.10
2019-01-30T23:38:33.804Z,13.85
2019-01-30T23:41:05.365Z,14.60
2019-01-30T23:43:46.384Z,12.85
2019-01-30T23:46:26.832Z,11.93
2019-01-30T23:49:07.484Z,11.83
2019-01-30T23:51:48.921Z,10.82
2019-01-30T23:57:14.640Z,13.72
2019-01-30T23:59:55.161Z,20.17
